createdAt,value
2022-08-20T00:03:40.499Z,31.95
2022-08-20T00:08:37.957Z,31.48
2022-08-20T00:13:37.637Z,31.23
2022-08-20T00:18:36.519Z,31.25
2022-08-20T00:23:33.440Z,31.24
2022-08-20T00:28:30.446Z,31.38
2022-08-20T00:33:28.031Z,31.22
2022-08-20T00:38:25.309Z,31.03
2022-08-20T00:43:28.871Z,31.29
2022-08-20T00:48:26.597Z,31.53
2022-08-20T00:53:26.282Z,31.67
2022-08-20T00:58:23.202Z,31.38
2022-08-20T01:03:20.281Z,31.52
2022-08-20T01:08:21.281Z,31.39
2022-08-20T01:13:20.925Z,31.50
2022-08-20T01:18:20.397Z,31.07
2022-08-20T01:23:27.113Z,30.64
2022-08-20T01:28:27.563Z,29.84
2022-08-20T01:33:24.717Z,29.30
2022-08-20T01:38:22.113Z,29.25
2022-08-20T01:43:18.991Z,29.27
2022-08-20T01:48:19.083Z,29.59
2022-08-20T01:53:18.266Z,29.89
2022-08-20T01:58:15.079Z,30.12
2022-08-20T02:03:11.915Z,30.27
2022-08-20T02:08:09.498Z,30.51
2022-08-20T02:13:08.331Z,30.91
2022-08-20T02:18:08.052Z,30.67
2022-08-20T02:23:06.253Z,30.74
2022-08-20T02:28:06.885Z,30.49
2022-08-20T02:33:04.940Z,30.54
2022-08-20T02:38:02.337Z,30.67
2022-08-20T02:42:59.834Z,30.61
2022-08-20T02:47:58.461Z,29.61
2022-08-20T02:52:55.296Z,29.29
2022-08-20T02:57:53.244Z,29.51
2022-08-20T03:02:51.152Z,29.70
2022-08-20T03:07:50.018Z,29.34
2022-08-20T03:12:47.434Z,29.12
2022-08-20T03:17:45.323Z,29.72
2022-08-20T03:22:41.984Z,29.39
2022-08-20T03:27:39.316Z,29.10
2022-08-20T03:32:36.982Z,29.28
2022-08-20T03:37:34.672Z,29.08
2022-08-20T03:42:31.498Z,29.32
2022-08-20T03:47:28.802Z,29.58
2022-08-20T03:52:26.644Z,29.75
2022-08-20T03:57:23.724Z,29.60
2022-08-20T04:02:20.356Z,29.52
2022-08-20T04:07:25.044Z,29.37
2022-08-20T04:12:22.857Z,28.53
2022-08-20T04:17:20.195Z,27.67
2022-08-20T04:22:18.949Z,27.97
2022-08-20T04:27:17.442Z,28.71
2022-08-20T04:32:14.249Z,29.03
2022-08-20T04:37:17.542Z,29.63
2022-08-20T04:42:14.873Z,29.64
2022-08-20T04:47:11.599Z,29.47
2022-08-20T04:52:10.263Z,29.52
2022-08-20T04:57:09.615Z,29.52
2022-08-20T05:02:07.021Z,29.92
2022-08-20T05:07:03.940Z,29.67
2022-08-20T05:12:03.001Z,29.47
2022-08-20T05:17:04.979Z,29.40
2022-08-20T05:22:02.507Z,29.15
2022-08-20T05:26:59.544Z,29.00
2022-08-20T05:31:56.520Z,29.15
2022-08-20T05:36:54.066Z,29.22
2022-08-20T05:41:52.784Z,29.41
2022-08-20T05:46:49.498Z,29.58
2022-08-20T05:51:46.516Z,29.21
2022-08-20T05:56:43.462Z,29.14
2022-08-20T06:01:41.353Z,28.68
2022-08-20T06:06:44.652Z,28.25
2022-08-20T06:11:43.255Z,28.41
2022-08-20T06:16:57.364Z,28.79
2022-08-20T06:21:55.927Z,29.03
2022-08-20T06:26:55.354Z,28.43
2022-08-20T06:31:52.866Z,27.76
2022-08-20T06:36:49.568Z,27.70
2022-08-20T06:41:46.265Z,27.80
2022-08-20T06:46:43.338Z,27.78
2022-08-20T06:51:41.395Z,27.64
2022-08-20T06:56:38.328Z,27.72
2022-08-20T07:01:35.016Z,28.28
2022-08-20T07:06:31.832Z,28.76
2022-08-20T07:11:29.272Z,28.61
2022-08-20T07:16:26.124Z,28.31
2022-08-20T07:21:22.908Z,28.72
2022-08-20T07:26:19.543Z,28.82
2022-08-20T07:31:35.274Z,29.02
2022-08-20T07:36:32.338Z,28.84
2022-08-20T07:41:31.625Z,28.83
2022-08-20T07:46:31.331Z,28.91
2022-08-20T07:51:29.016Z,29.13
2022-08-20T07:56:26.116Z,29.37
2022-08-20T08:01:29.099Z,29.62
2022-08-20T08:06:30.770Z,29.77
2022-08-20T08:11:28.029Z,29.64
2022-08-20T08:16:24.720Z,29.85
2022-08-20T08:21:21.833Z,29.91
2022-08-20T08:26:19.995Z,30.02
2022-08-20T08:31:16.872Z,30.08
2022-08-20T08:36:15.068Z,30.50
2022-08-20T08:41:15.861Z,30.70
2022-08-20T08:46:16.580Z,30.88
2022-08-20T08:51:15.760Z,30.92
2022-08-20T08:56:17.207Z,31.02
2022-08-20T09:01:53.225Z,31.21
2022-08-20T09:06:33.159Z,31.38
2022-08-20T09:11:30.742Z,31.68
2022-08-20T09:16:28.455Z,31.50
2022-08-20T09:21:41.505Z,31.77
2022-08-20T09:26:39.232Z,31.87
2022-08-20T09:31:38.299Z,32.05
2022-08-20T09:36:35.978Z,31.95
2022-08-20T09:41:33.667Z,32.15
2022-08-20T09:46:31.604Z,32.25
2022-08-20T09:51:29.167Z,32.40
2022-08-20T09:56:26.054Z,32.33
2022-08-20T10:01:23.263Z,32.71
2022-08-20T10:06:20.591Z,32.33
2022-08-20T10:11:18.634Z,32.33
2022-08-20T10:16:15.656Z,32.78
2022-08-20T10:21:12.831Z,32.75
2022-08-20T10:26:09.575Z,32.52
2022-08-20T10:31:07.224Z,32.76
2022-08-20T10:36:08.913Z,32.77
2022-08-20T10:41:06.812Z,33.07
2022-08-20T10:46:03.516Z,33.04
2022-08-20T10:51:01.060Z,32.96
2022-08-20T10:55:58.267Z,33.20
2022-08-20T11:00:56.913Z,33.21
2022-08-20T11:05:53.621Z,33.67
2022-08-20T11:10:51.638Z,33.35
2022-08-20T11:15:48.343Z,33.24
2022-08-20T11:20:45.106Z,33.32
2022-08-20T11:25:41.873Z,33.61
2022-08-20T11:30:39.272Z,33.89
2022-08-20T11:35:43.313Z,33.66
2022-08-20T11:40:47.056Z,33.69
2022-08-20T11:45:45.595Z,34.03
2022-08-20T11:50:42.370Z,34.24
2022-08-20T11:55:39.268Z,33.81
2022-08-20T12:00:36.442Z,33.83
2022-08-20T12:05:36.172Z,33.79
2022-08-20T12:10:32.993Z,34.01
2022-08-20T12:15:29.723Z,33.68
2022-08-20T12:20:26.743Z,33.73
2022-08-20T12:25:24.018Z,33.70
2022-08-20T12:30:23.122Z,33.98
2022-08-20T12:35:23.454Z,34.04
2022-08-20T12:40:31.871Z,34.12
2022-08-20T12:45:31.235Z,34.04
2022-08-20T12:50:31.418Z,34.17
2022-08-20T12:55:28.890Z,34.07
2022-08-20T13:00:27.091Z,34.11
2022-08-20T13:05:24.955Z,33.97
2022-08-20T13:10:22.942Z,34.10
2022-08-20T13:15:19.906Z,34.14
2022-08-20T13:20:19.120Z,34.19
2022-08-20T13:25:16.699Z,34.21
2022-08-20T13:30:17.399Z,34.40
2022-08-20T13:35:14.873Z,34.45
2022-08-20T13:40:12.666Z,34.52
2022-08-20T13:45:10.667Z,34.19
2022-08-20T13:50:09.604Z,34.21
2022-08-20T13:55:07.677Z,34.28
2022-08-20T14:00:08.646Z,34.46
2022-08-20T14:05:08.912Z,34.39
2022-08-20T14:10:08.412Z,34.39
2022-08-20T14:15:05.988Z,34.37
2022-08-20T14:20:08.597Z,34.71
2022-08-20T14:25:08.612Z,34.56
2022-08-20T14:30:10.425Z,34.44
2022-08-20T14:35:08.292Z,34.61
2022-08-20T14:40:06.587Z,34.69
2022-08-20T14:45:05.922Z,34.55
2022-08-20T14:50:06.112Z,34.42
2022-08-20T14:55:04.328Z,34.55
2022-08-20T15:00:01.438Z,34.81
2022-08-20T15:04:58.893Z,34.50
2022-08-20T15:09:55.978Z,34.43
2022-08-20T15:14:53.103Z,34.45
2022-08-20T15:19:51.680Z,34.38
2022-08-20T15:24:49.186Z,34.47
2022-08-20T15:29:52.735Z,34.63
2022-08-20T15:34:49.595Z,34.57
2022-08-20T15:39:47.221Z,34.76
2022-08-20T15:44:45.235Z,35.79
2022-08-20T15:49:42.190Z,35.14
2022-08-20T15:54:39.288Z,34.78
2022-08-20T15:59:44.298Z,34.72
2022-08-20T16:04:57.627Z,34.50
2022-08-20T16:10:03.108Z,34.32
2022-08-20T16:15:02.157Z,34.17
2022-08-20T16:20:03.462Z,34.22
2022-08-20T16:25:01.987Z,34.29
2022-08-20T16:30:01.896Z,34.29
2022-08-20T16:35:01.272Z,34.09
2022-08-20T16:40:02.407Z,34.16
2022-08-20T16:45:00.861Z,34.05
2022-08-20T16:49:59.574Z,33.93
2022-08-20T16:54:56.864Z,33.87
2022-08-20T16:59:55.301Z,33.89
2022-08-20T17:04:58.808Z,33.74
2022-08-20T17:10:08.158Z,33.68
2022-08-20T17:15:08.054Z,33.67
2022-08-20T17:20:14.454Z,33.72
2022-08-20T17:25:19.330Z,33.67
2022-08-20T17:30:19.755Z,33.56
2022-08-20T17:35:23.568Z,33.59
2022-08-20T17:40:25.649Z,33.56
2022-08-20T17:45:24.877Z,33.46
2022-08-20T17:50:24.060Z,33.47
2022-08-20T17:55:21.114Z,33.43
2022-08-20T18:00:22.955Z,33.34
2022-08-20T18:05:21.280Z,33.25
2022-08-20T18:10:20.545Z,33.07
2022-08-20T18:15:23.620Z,33.06
2022-08-20T18:20:35.535Z,32.96
2022-08-20T18:25:36.808Z,32.83
2022-08-20T18:30:33.853Z,33.10
2022-08-20T18:35:38.557Z,32.86
2022-08-20T18:40:42.744Z,32.65
2022-08-20T18:45:40.110Z,32.83
2022-08-20T18:50:44.600Z,32.88
2022-08-20T18:55:42.286Z,32.64
2022-08-20T19:00:41.269Z,32.80
2022-08-20T19:05:40.783Z,32.52
2022-08-20T19:10:45.346Z,31.96
2022-08-20T19:15:44.803Z,31.53
2022-08-20T19:20:51.995Z,31.51
2022-08-20T19:25:54.302Z,31.20
2022-08-20T19:30:51.208Z,31.01
2022-08-20T19:35:48.054Z,31.08
2022-08-20T19:40:45.935Z,31.11
2022-08-20T19:45:47.112Z,30.80
2022-08-20T19:50:49.892Z,30.62
2022-08-20T19:55:55.870Z,30.48
2022-08-20T20:00:53.851Z,30.33
2022-08-20T20:05:53.223Z,30.44
2022-08-20T20:10:52.463Z,30.71
2022-08-20T20:15:50.888Z,30.53
2022-08-20T20:20:57.860Z,30.46
2022-08-20T20:25:57.917Z,30.55
2022-08-20T20:30:54.573Z,30.78
2022-08-20T20:36:01.429Z,30.59
2022-08-20T20:40:59.368Z,30.50
2022-08-20T20:45:57.836Z,30.83
2022-08-20T20:50:56.572Z,31.11
2022-08-20T20:55:54.940Z,30.92
2022-08-20T21:00:51.666Z,30.82
2022-08-20T21:05:48.454Z,31.01
2022-08-20T21:10:45.229Z,30.77
2022-08-20T21:15:42.659Z,30.79
2022-08-20T21:20:39.506Z,30.94
2022-08-20T21:25:36.729Z,30.86
2022-08-20T21:30:33.654Z,31.02
2022-08-20T21:35:31.178Z,30.97
2022-08-20T21:40:28.374Z,30.96
2022-08-20T21:45:28.324Z,31.05
2022-08-20T21:50:26.033Z,30.50
2022-08-20T21:55:23.515Z,29.72
2022-08-20T22:00:40.299Z,29.36
2022-08-20T22:05:38.964Z,29.45
2022-08-20T22:10:35.651Z,29.83
2022-08-20T22:15:32.571Z,30.09
2022-08-20T22:20:29.888Z,29.84
2022-08-20T22:25:27.585Z,29.32
2022-08-20T22:30:24.648Z,29.05
2022-08-20T22:35:21.373Z,29.07
2022-08-20T22:40:19.823Z,28.40
2022-08-20T22:45:17.594Z,28.23
2022-08-20T22:50:15.965Z,27.80
2022-08-20T22:55:13.134Z,27.68
2022-08-20T23:00:11.382Z,27.49
2022-08-20T23:05:11.997Z,27.51
2022-08-20T23:10:08.958Z,27.31
2022-08-20T23:15:06.543Z,27.14
2022-08-20T23:20:04.150Z,26.89
2022-08-20T23:25:01.777Z,27.30
2022-08-20T23:29:58.540Z,27.14
2022-08-20T23:34:55.340Z,27.10
2022-08-20T23:39:52.187Z,26.80
2022-08-20T23:44:49.718Z,26.84
2022-08-20T23:49:46.531Z,26.90
2022-08-20T23:54:43.426Z,26.78
2022-08-20T23:59:40.295Z,26.72
